Portada
METAR-TAF:

METAR-TAF

Aeropuertos :

Gran Canaria, España

Aeropuerto de Gran Canaria

latitud: 27-56N, longitud: 015-23W, altitud: 23 m

Observación

El informe se hizo hace 48 minutos, a las 00:00 UTC
Viento 18 kt del norte
Temperatura 21°C
Humedad 60%
Presión 1020 hPa
Visibilidad 10 km o más
Cielo nuboso a una altura de 3400 ft

METAR: GCLP 220000Z 36018KT 9999 BKN034 21/13 Q1020 NOSIG

Hora: 01:48 (00:48 UTC)

Pronóstico

El informe se hizo hace 4 horas y 48 minutos, a las 20:00 UTC
Pronóstico válido del 21 a las 21 UTC al 22 a las 21 UTC
Viento 20 kt del norte
Visibilidad 10 km o más
Nubes dispersas a una altura de 3000 ft
Probabilidad 30% :
Temporalmente
del 21 a las 21 UTC al 22 a las 21 UTC
Viento 20 kt del norte-noreste con ráfagas de 30 kt

TAF: GCLP 212000Z 2121/2221 36020KT 9999 SCT030 TX26/2214Z TN20/2206Z PROB30 TEMPO 2121/2221 02020G30KT

Observaciones y pronósticos meteorológicos de más de 4000 aeropuertos (mensajes METAR y TAF).

Los puntos amarillos y rojos representan las estaciones disponibles.

Ponga el ratón en el punto deseado para ver el nombre de la estación.

Haga clic para ver las observaciones y los pronósticos meteorológicos.

Para cambiar el mapa : haga clic en los botones verdes con una cruz de color negro para hacer un zoom, en el botón verde con un guión para alejar o en las flechas verdes para mapas adyacentes.


METAR-TAF: